Date,TemperatureHighF,TemperatureAvgF,TemperatureLowF,DewpointHighF,DewpointAvgF,DewpointLowF,HumidityHigh,HumidityAvg,HumidityLow,PressureMaxIn,PressureMinIn,WindSpeedMaxMPH,WindSpeedAvgMPH,GustSpeedMaxMPH,PrecipitationSumIn
2013-1-1,33,28,20,31,26,17,97,89,73,30.18,30.05,6,1,10,0.05
2013-1-2,25,16,7,18,12,4,93,86,70,30.31,30.16,5,0,6,0.01
2013-1-3,32,18,1,24,13,-2,93,80,51,30.36,30.26,14,3,19,0.00
2013-1-4,33,28,25,25,22,19,82,76,65,30.36,30.30,19,7,23,0.00
2013-1-5,39,29,12,29,23,10,94,81,64,30.40,30.19,9,3,13,0.02
2013-1-6,38,32,26,33,28,22,91,83,79,30.37,30.03,19,5,19,0.00
2013-1-7,37,29,18,28,24,17,94,84,69,30.51,30.29,8,2,13,0.00
2013-1-8,47,29,16,34,25,14,96,84,60,30.36,30.25,10,1,12,0.00
2013-1-9,49,40,26,42,35,24,95,82,63,30.53,30.24,13,4,17,0.04
2013-1-10,43,34,24,37,30,23,97,88,80,30.55,30.16,10,2,13,0.02
2013-1-11,60,52,42,55,48,37,98,88,75,30.15,29.90,19,4,24,0.45
2013-1-12,64,59,52,62,56,48,99,93,83,30.02,29.80,15,4,16,0.00
2013-1-13,65,55,36,62,53,35,98,94,81,30.10,29.71,21,5,33,0.49
2013-1-14,36,27,24,34,24,21,94,87,81,30.48,30.10,8,2,11,0.00
2013-1-15,31,27,21,26,23,19,94,85,79,30.42,30.13,9,4,13,0.00
2013-1-16,35,32,30,30,27,26,90,83,72,30.12,29.99,11,3,14,0.00
2013-1-17,41,32,25,32,27,19,91,80,64,30.40,30.11,6,1,9,0.01
2013-1-18,37,28,16,26,20,14,94,72,52,30.56,30.25,16,4,23,0.00
2013-1-19,52,44,37,31,27,24,65,52,38,30.25,29.90,26,11,33,0.00
2013-1-20,45,32,24,36,18,12,74,57,45,30.23,29.89,19,5,28,0.00
2013-1-21,24,19,9,16,10,0,80,69,60,30.28,30.11,17,4,28,0.00
2013-1-22,16,11,5,3,0,-2,75,62,48,30.43,30.27,14,4,17,0.00
2013-1-23,20,15,9,15,8,2,87,71,49,30.40,30.14,14,3,18,0.00
2013-1-24,22,17,11,16,9,5,89,73,55,30.63,30.16,8,2,11,0.00
2013-1-25,25,21,18,21,15,9,90,79,64,30.51,30.08,12,3,14,0.00
2013-1-26,30,25,13,22,19,10,91,79,66,30.48,30.16,12,2,13,0.05
2013-1-27,35,25,12,31,21,10,94,82,69,30.50,30.23,9,2,13,0.02
2013-1-28,51,46,33,50,44,31,99,95,86,30.23,30.03,21,6,21,0.30
2013-1-29,64,57,49,59,54,48,99,89,77,30.06,29.58,24,6,28,0.00
2013-1-30,66,53,32,59,49,26,98,85,76,29.58,29.24,26,9,31,0.67
2013-1-31,32,26,16,27,20,12,93,77,59,30.03,29.50,32,10,32,0.00
2013-2-1,15,9,4,12,3,-1,89,75,66,30.43,30.03,16,5,24,0.00
2013-2-2,28,21,4,25,18,1,91,87,79,30.39,30.04,14,4,18,0.00
2013-2-3,26,21,14,23,16,11,90,81,69,30.15,29.95,15,5,18,0.00
2013-2-4,33,24,10,31,21,8,95,88,72,30.16,29.87,12,2,14,0.00
2013-2-5,35,31,26,31,27,24,96,87,76,30.02,29.87,10,2,16,0.02
2013-2-6,36,31,24,30,26,22,92,81,68,30.31,30.02,6,1,9,0.00
2013-2-7,52,39,27,40,32,24,88,78,62,30.25,29.82,9,2,10,0.00
2013-2-8,49,36,27,43,31,22,94,84,65,30.34,29.80,11,4,14,0.14
2013-2-9,37,28,18,25,21,16,95,78,55,30.47,30.28,5,1,10,0.01
2013-2-10,52,41,27,44,31,22,89,68,44,30.28,29.81,20,3,21,0.02
2013-2-11,51,45,36,49,40,29,95,81,61,30.03,29.75,20,8,28,0.00
2013-2-12,47,36,28,31,27,25,89,73,45,30.14,29.94,16,3,18,0.00
2013-2-13,35,30,28,30,27,25,94,90,78,29.94,29.79,7,1,8,0.03
2013-2-14,50,37,29,40,33,27,96,85,62,30.00,29.83,21,6,25,0.00
2013-2-15,38,30,18,34,28,16,95,89,68,30.17,29.99,13,2,16,0.01
2013-2-16,27,18,7,22,14,4,95,82,65,30.17,30.07,16,2,20,0.01
2013-2-17,28,20,12,16,12,7,87,73,50,30.28,30.15,11,1,17,0.00
2013-2-18,56,38,19,40,26,12,83,62,45,30.27,29.77,17,4,32,0.07
2013-2-19,44,31,23,41,27,16,94,83,72,30.11,29.65,22,9,28,0.15
2013-2-20,24,21,16,18,14,10,83,75,66,30.35,30.11,15,3,23,0.00
2013-2-21,27,24,21,24,18,14,87,79,76,30.40,30.13,13,3,15,0.00
2013-2-22,40,33,27,38,31,23,98,93,85,30.14,29.94,18,4,21,0.16
2013-2-23,41,34,29,32,28,25,98,81,60,30.01,29.92,12,2,15,0.01
2013-2-24,38,30,23,27,23,21,93,78,59,30.19,29.96,11,1,17,0.00
2013-2-25,43,32,18,30,24,17,96,77,57,30.23,29.96,11,3,16,0.00
2013-2-26,44,39,33,43,35,26,96,87,70,29.96,29.40,16,7,21,0.46
2013-2-27,42,36,32,41,34,30,96,92,85,29.72,29.51,22,9,26,0.08
2013-2-28,36,33,31,33,32,29,96,94,88,29.95,29.68,14,4,17,0.07
2013-3-1,35,32,28,32,29,24,97,90,81,30.06,29.94,7,2,11,0.00
2013-3-2,28,27,26,24,21,20,86,80,73,30.10,30.04,9,2,11,0.00
2013-3-3,32,28,24,22,19,16,86,72,57,30.11,30.06,7,1,11,0.00
2013-3-4,41,29,15,30,20,12,94,72,45,30.21,30.05,7,1,11,0.03
2013-3-5,36,34,32,33,31,29,97,90,78,30.09,29.59,15,4,17,0.28
2013-3-6,33,31,29,31,29,28,97,94,90,30.26,29.61,4,0,6,0.23
2013-3-7,37,32,28,32,29,25,96,88,74,30.40,30.25,7,1,8,0.29
2013-3-8,39,30,20,28,24,18,96,79,58,30.51,30.40,8,1,10,0.00
2013-3-9,54,40,24,40,32,22,96,76,52,30.42,30.06,10,2,13,0.00
2013-3-10,66,57,43,41,37,34,73,49,33,30.06,29.83,13,3,18,0.04
2013-3-11,58,49,38,51,44,34,94,85,53,29.86,29.56,22,6,26,1.21
2013-3-12,41,36,31,34,31,29,93,82,68,30.05,29.83,17,6,26,0.01
2013-3-13,34,29,25,31,24,19,94,81,64,30.32,30.00,16,5,21,0.00
2013-3-14,42,30,20,26,21,17,93,71,41,30.38,30.17,14,3,17,0.00
2013-3-15,50,39,28,41,33,23,93,79,61,30.19,29.82,11,3,15,0.01
2013-3-16,56,43,34,50,40,31,98,88,76,30.04,29.61,9,2,13,0.15
2013-3-17,36,34,32,31,29,26,90,82,74,30.17,30.04,13,4,14,0.00
2013-3-18,49,40,32,48,38,29,98,94,79,30.05,29.62,17,5,25,1.08
2013-3-19,41,36,28,36,24,18,88,65,40,30.10,29.81,26,9,35,0.00
2013-3-20,36,30,23,22,18,10,80,61,48,30.10,29.96,17,5,24,0.00
2013-3-21,30,24,19,19,15,11,80,67,55,30.06,29.96,13,2,15,0.00
2013-3-22,42,29,18,23,19,15,90,67,42,30.10,30.02,14,2,15,0.00
2013-3-23,49,36,24,28,24,20,92,68,34,30.10,29.94,9,1,11,0.00
2013-3-24,35,33,32,32,28,26,97,84,69,29.93,29.44,13,6,21,0.01
2013-3-25,34,32,29,32,30,28,98,95,91,29.94,29.44,6,1,9,0.30
2013-3-26,40,34,30,32,30,27,95,85,68,30.24,29.94,10,2,15,0.06
2013-3-27,42,35,30,33,28,24,88,74,55,30.32,30.23,9,3,16,0.00
2013-3-28,48,37,26,31,27,22,90,67,46,30.36,30.29,11,2,15,0.00
2013-3-29,54,39,23,34,30,22,96,72,42,30.34,30.22,12,1,13,0.00
2013-3-30,57,42,25,38,31,24,97,69,37,30.27,29.97,10,2,14,0.00
2013-3-31,56,47,39,47,42,36,98,84,61,29.97,29.76,18,4,20,0.02
2013-4-1,48,40,31,42,28,20,89,63,42,30.13,29.78,10,3,16,0.01
2013-4-2,45,33,20,23,20,16,90,59,36,30.29,30.13,16,2,17,0.00
2013-4-3,46,34,19,23,18,14,92,55,32,30.44,30.28,10,2,14,0.00
2013-4-4,54,40,30,28,21,17,83,50,24,30.38,30.00,9,2,11,0.00
2013-4-5,59,42,25,37,29,23,94,64,33,30.16,29.99,10,1,13,0.00
2013-4-6,63,48,33,38,30,24,83,50,31,30.24,29.91,19,3,19,0.00
2013-4-7,73,63,56,53,44,37,82,51,38,29.96,29.83,20,8,26,0.00
2013-4-8,72,61,48,56,53,47,98,76,57,29.98,29.85,19,5,24,0.05
2013-4-9,80,66,48,62,55,47,96,71,44,30.03,29.88,23,5,27,0.00
2013-4-10,82,71,62,67,61,57,84,70,51,29.94,29.76,23,7,26,0.00
2013-4-11,65,61,58,63,59,55,98,92,83,29.82,29.53,11,2,16,1.07
2013-4-12,58,46,40,57,41,34,99,83,66,29.91,29.48,24,6,26,0.13
2013-4-13,56,45,37,40,36,34,90,73,52,30.05,29.91,18,6,24,0.00
2013-4-14,69,52,35,48,40,33,94,68,38,30.09,29.90,9,2,11,0.00
2013-4-15,68,60,45,55,50,42,94,72,55,29.99,29.89,12,3,16,0.00
2013-4-16,78,63,55,65,58,53,98,84,62,30.16,29.93,17,5,20,0.51
2013-4-17,76,62,52,67,59,52,99,91,68,30.20,29.96,9,3,12,0.38
2013-4-18,81,72,62,66,59,53,95,67,44,29.97,29.59,25,6,29,0.00
2013-4-19,73,50,39,60,42,31,95,75,52,29.96,29.39,22,9,33,0.76
2013-4-20,48,40,33,34,30,27,90,70,46,30.42,29.95,16,4,20,0.01
2013-4-21,53,42,31,34,29,24,87,62,36,30.56,30.40,12,3,16,0.00
2013-4-22,68,52,35,46,37,28,92,58,35,30.40,30.14,8,1,11,0.00
2013-4-23,69,57,40,53,47,38,96,70,49,30.16,29.85,15,3,19,0.00
2013-4-24,65,50,35,56,45,33,97,82,62,30.21,29.75,24,4,24,0.68
2013-4-25,57,43,31,40,34,29,98,74,44,30.40,30.21,19,4,25,0.01
2013-4-26,58,45,28,42,34,28,98,70,38,30.49,30.36,7,1,9,0.00
2013-4-27,68,53,36,52,42,36,97,72,36,30.37,30.07,9,2,16,0.00
2013-4-28,66,58,54,61,56,50,97,91,78,30.07,29.80,9,2,16,0.15
2013-4-29,63,58,50,57,55,49,99,90,76,29.97,29.87,8,2,11,0.02
2013-4-30,75,60,43,60,53,43,100,80,49,30.06,29.96,11,1,13,0.01
2013-5-1,81,65,48,64,56,48,99,76,45,30.17,30.05,10,2,14,0.00
2013-5-2,73,63,52,59,55,51,98,78,54,30.21,30.08,9,2,14,0.00
2013-5-3,75,66,55,58,52,40,97,65,35,30.09,29.96,11,3,17,0.00
2013-5-4,70,62,56,51,46,40,73,57,44,30.01,29.93,13,4,17,0.00
2013-5-5,64,59,53,50,45,38,87,62,38,29.98,29.91,11,3,15,0.01
2013-5-6,59,56,52,57,54,50,97,93,87,29.97,29.90,9,3,15,0.46
2013-5-7,71,61,54,61,57,54,98,86,62,29.97,29.90,11,2,15,0.00
2013-5-8,74,62,51,62,56,50,99,84,52,29.98,29.91,8,1,13,0.23
2013-5-9,78,64,50,63,57,49,100,79,45,30.00,29.92,10,1,14,0.01
2013-5-10,70,63,58,64,61,57,99,94,80,29.97,29.77,17,3,23,1.08
2013-5-11,61,52,44,61,50,40,99,91,80,29.99,29.81,10,2,16,0.01
2013-5-12,54,45,36,40,35,31,98,71,46,30.12,29.99,14,2,21,0.00
2013-5-13,59,48,37,40,35,28,95,66,32,30.18,30.11,13,1,19,0.00
2013-5-14,79,61,39,59,47,37,95,64,45,30.15,29.81,17,5,23,0.00
2013-5-15,85,76,65,64,60,58,79,60,44,29.84,29.75,26,8,26,0.00
2013-5-16,76,68,62,68,63,58,98,83,58,29.96,29.79,13,2,17,0.28
2013-5-17,79,66,57,69,62,57,100,90,60,30.05,29.95,10,1,17,0.18
2013-5-18,79,69,61,68,64,61,100,87,62,30.05,29.93,8,1,9,0.00
2013-5-19,81,70,59,70,66,59,100,87,61,29.98,29.88,13,1,13,0.00
2013-5-20,84,74,65,72,69,64,99,84,65,29.97,29.85,13,2,18,0.00
2013-5-21,83,75,68,68,66,63,92,73,53,29.92,29.76,15,5,18,0.00
2013-5-22,79,69,63,66,63,61,98,83,61,29.81,29.69,22,4,22,0.60
2013-5-23,68,62,50,64,58,46,99,90,70,30.07,29.76,19,3,20,0.37
2013-5-24,63,52,44,47,42,37,95,70,41,30.31,30.07,7,1,14,0.00
2013-5-25,65,53,40,51,44,40,98,75,44,30.40,30.22,6,1,9,0.00
2013-5-26,69,58,46,53,45,41,94,65,40,30.31,30.17,9,1,9,0.00
2013-5-27,79,65,52,64,55,48,93,72,52,30.21,29.93,11,2,16,0.16
2013-5-28,82,74,67,68,63,59,81,68,54,29.99,29.90,21,5,29,0.00
2013-5-29,84,76,68,66,62,60,84,64,45,30.04,29.95,17,5,21,0.00
2013-5-30,86,76,66,71,66,63,94,73,56,30.11,29.97,14,2,18,0.00
2013-5-31,82,72,66,73,66,63,99,82,64,30.03,29.92,14,4,34,0.85
2013-6-1,80,73,66,70,68,65,99,84,69,29.94,29.74,22,6,27,0.05
2013-6-2,76,70,64,68,62,59,96,79,60,29.90,29.76,15,4,17,0.00
2013-6-3,66,60,51,59,54,50,97,80,66,30.05,29.90,7,0,7,0.00
2013-6-4,74,61,45,53,48,42,99,68,35,30.16,30.05,14,2,15,0.00
2013-6-5,81,68,55,66,56,49,88,65,46,30.09,29.83,8,1,12,0.01
2013-6-6,68,65,61,67,63,60,99,95,88,29.86,29.75,9,1,12,1.05
2013-6-7,72,62,56,62,58,55,98,85,61,29.89,29.78,9,2,11,0.00
2013-6-8,73,64,53,64,58,53,99,83,62,30.03,29.87,6,0,6,0.00
2013-6-9,79,71,60,67,64,58,97,79,55,30.05,29.88,9,1,11,0.00
2013-6-10,78,68,64,68,65,61,98,90,61,29.88,29.74,9,3,20,0.76
2013-6-11,82,72,63,70,66,62,98,82,56,29.92,29.81,13,3,14,0.01
2013-6-12,86,73,66,76,70,65,99,89,68,29.88,29.80,10,2,13,0.00
2013-6-13,76,69,64,68,62,57,99,81,54,29.87,29.55,8,1,11,1.42
2013-6-14,77,67,55,64,59,54,98,77,53,30.03,29.88,9,1,12,0.00
2013-6-15,79,68,54,67,61,54,99,80,57,30.10,29.92,8,1,11,0.00
2013-6-16,77,70,66,70,66,63,97,86,76,29.97,29.90,14,3,18,0.07
2013-6-17,83,73,67,72,68,65,100,87,55,29.94,29.83,9,1,11,0.00
2013-6-18,82,71,64,73,66,58,99,84,60,29.97,29.82,10,2,15,2.01
2013-6-19,77,66,55,61,56,50,97,72,42,30.10,29.97,9,2,11,0.00
2013-6-20,83,69,54,67,60,54,99,77,48,30.18,30.10,10,0,11,0.00
2013-6-21,84,72,57,72,64,56,99,77,50,30.19,30.08,7,1,11,0.00
2013-6-22,86,75,63,75,69,62,99,82,62,30.13,30.01,11,2,17,0.00
2013-6-23,86,76,64,74,68,62,99,79,56,30.10,29.99,12,2,28,0.00
2013-6-24,83,74,63,74,69,63,100,85,64,30.09,29.97,12,2,16,0.00
2013-6-25,88,78,68,77,71,67,99,82,61,30.03,29.83,15,4,17,0.00
2013-6-26,82,73,67,75,70,66,98,90,75,29.90,29.73,11,2,14,0.43
2013-6-27,69,68,68,68,68,67,99,98,98,29.76,29.73,3,1,6,0.00
2013-6-28,83,72,63,71,65,59,97,80,53,29.60,29.53,16,2,22,0.02
2013-6-29,77,68,61,69,64,60,99,88,69,29.63,29.54,11,2,11,0.02
2013-6-30,81,69,62,69,65,62,98,87,60,29.80,29.63,11,1,13,0.00
2013-7-1,78,69,64,70,65,61,96,90,75,29.90,29.78,10,2,13,0.03
2013-7-2,80,71,64,72,67,63,99,87,67,29.98,29.88,8,1,11,0.00
2013-7-3,80,73,66,71,68,66,99,88,67,30.08,29.98,9,1,19,0.22
2013-7-4,71,69,68,70,68,66,99,98,94,30.12,30.04,10,1,10,0.60
2013-7-5,76,70,66,71,68,65,100,94,81,30.12,30.04,8,1,12,0.28
2013-7-6,79,71,68,75,70,67,99,95,81,30.10,29.99,13,2,18,0.51
2013-7-7,80,71,65,72,68,64,99,90,70,30.08,29.98,11,1,11,0.00
2013-7-8,84,75,68,76,71,67,98,88,73,30.09,29.99,10,2,14,0.04
2013-7-9,88,78,72,79,73,70,97,87,70,30.04,29.93,13,3,19,0.16
2013-7-10,87,75,66,80,72,65,98,91,75,29.95,29.78,12,3,25,0.23
2013-7-11,79,70,61,70,65,58,100,85,61,29.99,29.89,11,2,14,0.01
2013-7-12,78,68,55,66,60,55,100,79,52,30.07,29.99,9,2,13,0.00
2013-7-13,82,72,62,70,66,60,94,80,63,30.12,30.03,13,2,15,0.00
2013-7-14,87,78,68,77,72,66,95,82,68,30.18,30.10,9,2,11,0.00
2013-7-15,89,79,69,76,72,68,99,82,56,30.26,30.18,9,1,9,0.00
2013-7-16,90,79,68,81,74,68,100,86,60,30.29,30.20,4,0,8,0.00
2013-7-17,91,78,70,78,74,70,100,88,62,30.27,30.14,6,0,9,0.00
2013-7-18,90,83,69,79,74,69,100,77,53,30.14,29.97,8,1,10,0.00
2013-7-19,88,77,70,79,74,69,100,90,71,30.00,29.84,13,2,28,0.03
2013-7-20,85,75,70,78,72,68,99,92,68,29.88,29.80,12,3,19,0.86
2013-7-21,82,73,67,75,71,67,100,93,75,29.94,29.84,3,0,5,0.01
2013-7-22,74,72,67,73,71,67,99,96,90,29.88,29.73,7,1,11,0.20
2013-7-23,84,73,66,77,70,65,100,91,69,29.80,29.68,14,3,25,0.30
2013-7-24,74,66,59,65,60,56,93,81,63,29.97,29.78,10,2,14,0.00
2013-7-25,76,64,53,63,57,52,98,79,53,30.06,29.98,11,1,13,0.00
2013-7-26,77,66,52,67,60,52,100,83,56,30.07,29.94,9,1,11,0.00
2013-7-27,75,66,60,68,63,58,99,90,61,29.94,29.79,13,2,17,0.16
2013-7-28,70,61,53,58,54,51,100,80,57,30.03,29.87,16,2,19,0.00
2013-7-29,75,63,52,62,57,51,99,82,56,30.17,30.03,12,1,14,0.00
2013-7-30,76,66,53,68,61,53,100,86,58,30.21,30.09,5,0,9,0.00
2013-7-31,73,68,65,69,66,63,98,93,85,30.10,29.91,9,1,10,0.00
2013-8-1,79,70,61,69,66,60,99,86,58,29.95,29.87,11,1,14,0.00
2013-8-2,81,68,54,67,62,54,100,82,58,29.98,29.90,11,2,16,0.00
2013-8-3,80,70,62,71,67,61,99,90,62,29.99,29.92,7,1,11,0.01
2013-8-4,76,67,57,63,59,56,99,79,53,30.10,29.99,10,1,13,0.00
2013-8-5,77,65,53,65,59,52,100,84,52,30.11,29.95,6,0,8,0.02
2013-8-6,79,70,59,71,64,57,98,84,67,29.97,29.89,10,1,13,0.00
2013-8-7,82,74,65,76,71,65,100,92,78,29.91,29.83,10,1,13,0.00
2013-8-8,83,73,68,77,72,68,100,97,79,29.92,29.84,11,1,13,0.31
2013-8-9,79,72,68,74,70,68,100,95,75,29.99,29.86,6,1,9,0.21
2013-8-10,81,72,64,74,69,64,100,89,66,30.08,29.99,8,0,10,0.00
2013-8-11,84,72,62,73,68,62,100,88,64,30.06,29.98,7,0,11,0.00
2013-8-12,83,71,60,72,67,60,100,88,63,30.04,29.84,11,1,17,0.12
2013-8-13,76,69,54,69,63,51,100,83,62,30.02,29.80,6,0,11,0.01
2013-8-14,68,58,48,55,51,48,98,81,53,30.16,30.02,9,1,11,0.00
2013-8-15,72,59,45,60,53,45,100,83,54,30.17,30.07,7,1,11,0.00
2013-8-16,76,64,52,60,56,52,99,79,50,30.14,30.09,10,1,13,0.00
2013-8-17,80,66,53,66,60,53,99,82,55,30.17,30.09,11,2,13,0.00
2013-8-18,79,67,56,68,62,56,100,86,57,30.16,30.06,5,1,9,0.00
2013-8-19,82,68,58,70,62,58,100,84,52,30.12,30.03,5,0,9,0.00
2013-8-20,83,69,56,70,63,56,100,84,54,30.15,30.06,6,0,9,0.00
2013-8-21,81,72,63,73,68,62,99,90,75,30.13,30.02,8,1,9,0.01
2013-8-22,84,71,64,74,69,64,100,92,64,30.08,29.98,9,1,14,0.09
2013-8-23,84,72,64,72,67,61,100,85,57,30.12,30.00,9,1,10,0.00
2013-8-24,82,68,55,70,62,54,99,82,53,30.24,30.12,6,1,9,0.00
2013-8-25,84,69,55,67,61,55,100,80,43,30.31,30.18,7,1,10,0.00
2013-8-26,87,72,57,74,66,57,100,85,55,30.23,30.03,12,1,16,0.00
2013-8-27,86,76,66,77,72,65,99,89,70,30.03,29.91,10,2,12,0.00
2013-8-28,90,80,72,77,74,71,97,84,66,29.92,29.81,11,2,16,0.00
2013-8-29,82,72,64,73,69,64,100,92,70,30.01,29.92,7,1,10,0.00
2013-8-30,86,73,61,74,68,61,100,87,59,29.97,29.79,9,1,12,0.00
2013-8-31,84,74,68,77,72,67,100,92,74,29.81,29.73,13,1,17,0.13
2013-9-1,84,73,66,73,69,65,100,89,67,29.80,29.71,8,2,14,0.00
2013-9-2,83,73,66,74,68,60,100,86,62,29.85,29.73,8,1,14,0.00
2013-9-3,73,63,54,60,56,54,98,81,57,30.04,29.85,7,1,14,0.00
2013-9-4,81,63,48,63,57,47,100,82,50,30.13,30.04,9,1,12,0.01
2013-9-5,85,67,52,66,58,49,100,77,51,30.18,30.09,9,1,10,0.00
2013-9-6,78,62,48,60,50,44,98,71,30,30.23,30.09,8,1,11,0.00
2013-9-7,84,66,48,68,59,48,99,82,53,30.09,29.92,11,2,15,0.00
2013-9-8,87,74,63,71,67,62,99,81,53,29.97,29.89,9,1,12,0.00
2013-9-9,88,75,62,74,69,62,99,81,56,30.00,29.91,14,2,17,0.00
2013-9-10,91,80,73,78,73,70,97,82,62,30.08,29.98,13,3,16,0.00
2013-9-11,89,78,68,77,72,67,99,83,61,30.11,29.96,10,2,14,0.00
2013-9-12,78,71,62,72,69,62,99,93,69,29.97,29.80,8,1,13,0.80
2013-9-13,63,57,48,61,51,45,98,81,56,30.08,29.87,5,0,10,0.00
2013-9-14,69,53,39,52,45,38,98,78,43,30.18,30.08,7,1,12,0.00
2013-9-15,75,58,41,61,51,41,100,82,51,30.15,30.00,9,1,15,0.01
2013-9-16,70,61,54,59,56,52,99,86,59,30.27,30.07,9,2,14,0.02
2013-9-17,74,60,48,57,53,47,98,79,49,30.32,30.15,8,2,12,0.00
2013-9-18,79,65,56,65,59,54,98,83,49,30.16,30.01,7,1,11,0.00
2013-9-19,78,68,62,71,66,62,100,95,74,30.06,29.93,9,1,15,0.12
2013-9-20,84,73,66,72,68,65,100,88,62,29.98,29.74,16,4,23,1.70
2013-9-21,72,64,54,67,59,50,100,87,54,29.85,29.64,3,0,14,0.82
2013-9-22,65,55,46,52,48,46,98,81,52,30.01,29.85,10,1,13,0.00
2013-9-23,67,54,41,52,47,41,99,79,50,30.12,29.98,11,2,13,0.00
2013-9-24,72,56,42,56,49,41,98,79,52,30.10,29.86,8,1,11,0.00
2013-9-25,71,57,48,59,52,47,98,85,59,29.93,29.81,7,1,9,0.00
2013-9-26,78,59,44,62,53,43,100,83,43,30.06,29.92,9,1,11,0.00
2013-9-27,78,60,44,59,51,44,100,77,37,30.16,30.01,5,0,9,0.00
2013-9-28,78,61,46,63,54,46,100,80,42,30.18,30.02,8,1,12,0.00
2013-9-29,69,60,51,62,58,51,100,92,76,30.05,29.98,11,2,15,0.02
2013-9-30,69,63,58,64,61,58,99,93,82,30.01,29.92,9,2,13,0.01
2013-10-1,76,63,52,66,59,51,100,89,65,30.07,29.98,14,2,19,0.00
2013-10-2,78,66,54,70,64,54,100,92,72,30.09,30.00,12,1,12,0.00
2013-10-3,74,68,63,71,67,63,100,97,86,30.07,29.97,9,1,14,0.46
2013-10-4,80,69,61,73,67,61,100,93,72,30.06,29.95,10,1,14,0.00
2013-10-5,79,70,62,72,68,62,100,94,77,30.03,29.91,13,3,18,0.00
2013-10-6,73,64,53,70,63,52,99,97,87,29.92,29.66,17,3,20,1.14
2013-10-7,60,51,44,53,47,44,99,86,61,30.16,29.78,17,3,21,0.01
2013-10-8,67,51,39,53,45,39,100,82,47,30.29,30.14,9,1,13,0.00
2013-10-9,71,55,42,54,47,42,99,80,41,30.25,30.15,8,1,10,0.00
2013-10-10,73,55,39,53,46,38,100,79,39,30.18,30.06,6,0,8,0.00
2013-10-11,77,58,44,57,50,43,100,80,41,30.10,30.00,5,0,8,0.00
2013-10-12,75,61,48,64,57,48,100,87,66,30.11,30.02,5,0,8,0.00
2013-10-13,72,59,50,62,54,47,100,86,54,30.28,30.10,6,0,9,0.01
2013-10-14,71,55,42,54,47,41,96,78,41,30.32,30.17,10,1,15,0.00
2013-10-15,72,60,47,65,57,46,100,92,76,30.19,29.93,12,2,15,0.00
2013-10-16,66,61,46,63,58,45,99,89,65,29.94,29.85,11,3,17,0.10
2013-10-17,53,46,39,50,45,39,100,94,83,29.98,29.85,11,1,15,0.06
2013-10-18,63,51,39,51,45,39,100,83,54,30.04,29.93,15,3,22,0.01
2013-10-19,50,45,40,46,43,38,97,92,77,29.99,29.82,11,1,16,0.11
2013-10-20,60,48,38,46,41,36,95,78,56,30.04,29.98,16,5,21,0.01
2013-10-21,64,53,41,49,43,38,93,71,48,30.00,29.87,14,4,22,0.00
2013-10-22,50,42,31,44,33,27,94,71,42,30.04,29.86,6,1,12,0.01
2013-10-23,45,40,34,39,36,33,98,87,71,30.03,29.76,9,1,20,0.09
2013-10-24,42,38,35,36,34,33,96,85,72,30.26,30.03,12,3,19,0.02
2013-10-25,48,36,27,36,30,26,95,78,49,30.44,30.26,14,2,17,0.00
2013-10-26,48,40,32,40,32,27,91,73,58,30.29,29.93,23,6,28,0.00
2013-10-27,55,40,28,42,34,28,99,82,49,30.12,30.05,13,1,15,0.00
2013-10-28,61,42,28,45,35,27,99,79,41,30.31,30.10,5,0,10,0.00
2013-10-29,57,45,32,46,40,31,99,85,62,30.37,30.22,4,0,6,0.00
2013-10-30,62,56,48,62,55,45,100,97,85,30.22,29.98,5,0,8,0.08
2013-10-31,64,62,59,63,60,57,99,90,81,29.99,29.31,24,6,42,1.20
2013-11-1,61,55,49,56,48,45,96,80,58,29.73,29.37,19,6,42,0.08
2013-11-2,53,48,44,45,41,37,92,77,57,30.07,29.71,17,3,19,0.00
2013-11-3,52,44,35,43,39,34,96,85,63,30.38,30.07,7,0,8,0.00
2013-11-4,56,46,36,43,38,33,91,74,57,30.42,30.31,12,2,15,0.00
2013-11-5,61,53,48,47,44,40,89,72,54,30.41,30.21,10,1,13,0.01
2013-11-6,65,56,45,59,49,40,97,78,58,30.21,29.94,15,5,26,0.36
2013-11-7,47,42,38,44,34,28,96,75,50,30.23,29.99,10,1,18,0.04
2013-11-8,48,38,30,36,32,28,95,79,54,30.37,30.19,11,2,14,0.00
2013-11-9,60,48,39,41,35,29,75,60,45,30.25,30.00,25,8,30,0.00
2013-11-10,51,42,28,42,33,27,95,72,55,30.34,30.07,10,2,19,0.00
2013-11-11,49,39,27,44,34,26,97,83,54,30.31,30.08,18,3,21,0.10
2013-11-12,33,28,24,32,24,21,96,84,66,30.62,30.26,13,1,14,0.03
2013-11-13,38,29,18,24,21,17,95,73,47,30.65,30.41,14,4,17,0.00
2013-11-14,52,40,30,26,23,19,73,53,27,30.41,30.16,19,6,22,0.00
2013-11-15,51,45,38,43,30,23,86,56,43,30.18,30.09,13,4,20,0.00
2013-11-16,60,52,42,55,49,40,94,89,84,30.14,29.90,18,4,18,0.00
2013-11-17,63,59,50,62,56,41,97,88,62,29.91,29.46,22,9,43,0.67
2013-11-18,51,45,36,41,36,30,87,72,54,30.18,29.74,27,6,29,0.04
2013-11-19,41,34,30,31,29,27,93,81,65,30.37,30.17,10,1,11,0.00
2013-11-20,49,37,29,35,30,25,91,77,55,30.36,30.25,9,2,13,0.00
2013-11-21,56,48,39,49,40,32,92,77,63,30.34,30.19,10,1,17,0.05
2013-11-22,52,47,36,52,45,31,99,92,81,30.36,30.15,13,4,13,0.13
2013-11-23,36,29,20,31,23,12,94,77,56,30.56,30.34,15,4,15,0.00
2013-11-24,26,19,13,14,12,9,92,74,53,30.70,30.56,6,1,15,0.00
2013-11-25,36,27,16,29,19,13,92,71,46,30.56,30.21,14,3,21,0.00
2013-11-26,34,32,30,33,30,28,97,94,90,30.23,29.93,7,0,11,0.03
2013-11-27,32,26,22,29,21,17,90,81,67,30.29,29.91,15,3,19,0.00
2013-11-28,32,25,19,21,18,15,92,76,57,30.47,30.29,12,3,22,0.00
2013-11-29,36,26,14,25,20,13,94,81,60,30.66,30.47,7,1,9,0.00
2013-11-30,47,35,24,32,27,21,88,72,49,30.55,30.19,11,2,15,0.00
2013-12-1,50,40,32,38,32,26,93,75,62,30.19,29.96,12,2,15,0.00
2013-12-2,48,38,30,40,35,29,97,89,74,29.96,29.81,6,1,9,0.02
2013-12-3,52,42,35,48,41,34,99,94,84,29.90,29.79,7,1,9,0.01
2013-12-4,61,54,42,57,51,41,98,91,85,29.88,29.72,13,2,13,0.00
2013-12-5,64,48,31,60,45,29,96,89,81,30.13,29.74,16,3,24,0.20
2013-12-6,32,28,25,29,27,24,96,94,90,30.41,30.11,6,1,10,0.01
2013-12-7,29,20,8,24,16,6,95,85,68,30.62,30.40,5,0,7,0.26
2013-12-8,32,24,13,32,21,11,98,90,82,30.57,30.04,11,3,17,0.00
2013-12-9,33,29,23,32,26,18,98,90,80,30.24,30.01,19,7,19,0.00
2013-12-10,27,22,17,19,16,11,93,78,61,30.38,30.16,18,5,28,0.00
2013-12-11,34,19,3,23,14,0,92,80,61,30.54,30.30,16,3,21,0.02
2013-12-12,22,15,3,10,6,0,90,70,42,30.58,30.37,15,4,18,0.00
2013-12-13,36,26,14,30,18,7,95,73,58,30.39,30.19,10,2,14,0.03
2013-12-14,36,33,30,36,32,29,99,97,95,30.20,29.72,11,3,16,0.46
2013-12-15,30,26,24,29,23,16,98,87,71,30.14,29.86,21,6,27,0.01
2013-12-16,30,25,23,28,23,21,96,92,84,30.16,30.01,12,2,15,0.00
2013-12-17,33,28,26,32,26,24,96,90,85,30.17,30.00,12,4,19,0.01
2013-12-18,37,27,20,23,20,17,94,76,54,30.28,30.07,14,5,18,0.01
2013-12-19,50,42,36,40,32,21,90,65,52,30.10,29.96,13,5,18,0.00
2013-12-20,59,53,48,57,47,37,96,81,61,29.96,29.80,18,6,24,0.01
2013-12-21,66,60,56,63,59,55,99,96,88,29.81,29.42,21,6,33,1.70
2013-12-22,62,53,38,61,50,37,98,89,77,30.01,29.51,24,8,32,0.48
2013-12-23,38,31,26,36,26,20,94,82,74,30.39,30.01,15,4,22,0.02
2013-12-24,26,18,12,21,13,7,91,81,71,30.58,30.36,12,2,18,0.00
2013-12-25,32,25,15,25,17,13,90,74,54,30.55,30.21,13,3,17,0.00
2013-12-26,38,32,25,27,24,20,90,73,54,30.36,30.19,21,6,24,0.00
2013-12-27,46,37,30,32,28,25,82,71,57,30.42,30.28,14,5,15,0.00
2013-12-28,52,42,35,36,32,29,80,68,53,30.28,30.02,14,5,18,0.00
2013-12-29,42,38,32,40,35,29,98,89,59,30.02,29.78,16,3,19,0.29
2013-12-30,32,26,22,29,22,17,88,84,79,30.24,30.01,11,2,14,0.00
2013-12-31,30,26,22,23,18,15,87,74,64,30.39,30.17,25,6,25,0.00
2014-1-1,42,31,20,31,26,18,95,82,61,30.32,30.04,9,1,14,0.00
2014-1-2,30,22,9,28,20,6,96,92,86,30.28,29.84,11,3,24,0.00